Time;durP1;ratioP1;P1;durP2;ratioP2;P2;SDS_P1;SDS_P2;PMS_P1;PMS_P2;Temp;Humidity;BMP_temperature;BMP_pressure;BME280_temperature;BME280_humidity;BME280_pressure;Samples;Min_cycle;Max_cycle;Signal;HPM_P1;HPM_P2
2023/04/05 00:01:14;;;;;;;16.27;11.32;;;;;;;6.50;54.38;102356.75;5090718;28;20451;-67
2023/04/05 00:03:41;;;;;;;15.25;11.07;;;;;;;6.46;53.61;102364.53;5091577;28;20519;-67
2023/04/05 00:06:06;;;;;;;14.60;10.80;;;;;;;6.43;54.41;102370.44;5090957;28;20060;-67
2023/04/05 00:08:32;;;;;;;18.83;10.38;;;;;;;6.42;54.63;102363.22;5082358;28;20452;-67
2023/04/05 00:10:57;;;;;;;15.45;10.00;;;;;;;6.40;54.51;102362.53;5072857;28;20609;-67
2023/04/05 00:13:22;;;;;;;13.32;10.05;;;;;;;6.36;54.80;102372.22;5059749;28;20052;-67
2023/04/05 00:15:48;;;;;;;13.95;10.48;;;;;;;6.34;54.17;102369.66;5073206;28;20394;-67
2023/04/05 00:18:23;;;;;;;11.85;9.40;;;;;;;6.29;54.38;102371.28;5080689;28;20043;-67
2023/04/05 00:20:50;;;;;;;12.93;9.50;;;;;;;6.26;54.63;102371.66;5068718;28;20533;-67
2023/04/05 00:23:16;;;;;;;15.02;9.77;;;;;;;6.26;54.96;102371.66;5070933;28;20091;-67
2023/04/05 00:25:43;;;;;;;12.45;9.25;;;;;;;6.20;54.98;102366.88;5070649;28;20032;-67
2023/04/05 00:28:08;;;;;;;13.38;9.57;;;;;;;6.24;54.83;102369.06;5083139;28;20121;-67
2023/04/05 00:30:33;;;;;;;13.07;9.10;;;;;;;6.20;54.91;102361.38;5057885;28;20108;-67
2023/04/05 00:32:59;;;;;;;11.70;9.43;;;;;;;6.15;55.07;102351.75;5064575;28;20482;-67
2023/04/05 00:35:26;;;;;;;11.55;9.10;;;;;;;6.11;54.92;102350.41;5062841;28;20029;-67
2023/04/05 00:37:52;;;;;;;15.00;9.35;;;;;;;6.11;55.45;102358.69;5091066;28;20043;-67
2023/04/05 00:40:17;;;;;;;13.00;9.18;;;;;;;6.08;55.13;102348.03;5089815;28;20104;-67
2023/04/05 00:42:42;;;;;;;11.43;9.00;;;;;;;6.09;55.26;102351.63;5069077;28;20082;-68
2023/04/05 00:45:08;;;;;;;12.40;8.85;;;;;;;6.08;55.59;102353.53;5070178;28;20080;-68
2023/04/05 00:47:33;;;;;;;12.45;9.70;;;;;;;6.05;55.50;102347.53;5054220;28;20036;-67
2023/04/05 00:49:59;;;;;;;11.38;9.30;;;;;;;6.01;55.45;102347.09;5066935;28;20036;-66
2023/04/05 00:52:26;;;;;;;12.50;9.70;;;;;;;6.01;55.55;102346.19;5069613;28;20028;-66
2023/04/05 00:54:52;;;;;;;14.23;9.57;;;;;;;6.00;55.59;102334.31;5089182;28;20036;-66
2023/04/05 00:57:17;;;;;;;11.07;8.75;;;;;;;5.96;56.11;102343.16;5089714;28;20028;-67
2023/04/05 00:59:42;;;;;;;12.48;9.45;;;;;;;5.99;55.76;102342.78;5090439;28;20024;-66
2023/04/05 01:02:18;;;;;;;12.95;8.70;;;;;;;6.00;55.99;102344.50;5057201;28;20064;-67
2023/04/05 01:04:51;;;;;;;12.55;9.50;;;;;;;5.96;55.94;102345.91;5083943;28;20032;-66
2023/04/05 01:07:24;;;;;;;11.27;8.95;;;;;;;5.96;55.86;102354.19;5068959;28;20082;-66
2023/04/05 01:09:57;;;;;;;10.85;8.75;;;;;;;5.89;55.84;102349.41;5068116;28;20078;-67
2023/04/05 01:12:27;;;;;;;16.05;9.68;;;;;;;5.85;56.34;102348.03;5070381;28;20091;-66
2023/04/05 01:14:54;;;;;;;10.75;8.70;;;;;;;5.81;55.86;102349.44;5086174;28;20035;-66
2023/04/05 01:17:22;;;;;;;12.63;9.02;;;;;;;5.77;55.99;102344.50;5065730;28;20303;-66
2023/04/05 01:19:52;;;;;;;12.80;9.35;;;;;;;5.74;56.03;102340.22;5067252;28;20507;-66
2023/04/05 01:22:45;;;;;;;11.57;8.75;;;;;;;5.79;55.99;102342.41;5070971;28;20056;-66
2023/04/05 01:25:48;;;;;;;13.15;9.43;;;;;;;5.78;56.19;102337.97;5088410;28;20364;-66
2023/04/05 01:28:41;;;;;;;11.43;8.85;;;;;;;5.76;56.02;102332.63;5090791;28;20039;-67
2023/04/05 01:31:07;;;;;;;;;;;;;;;5.94;54.99;102332.34;5090066;28;20028;-67
2023/04/05 01:34:00;;;;;;;13.10;9.20;;;;;;;5.77;55.54;102322.44;5091066;28;20433;-67
2023/04/05 01:36:32;;;;;;;13.88;9.30;;;;;;;5.64;56.31;102328.59;5067215;28;20491;-66
2023/04/05 01:39:02;;;;;;;15.07;8.88;;;;;;;5.60;56.52;102324.50;5072095;28;20025;-68
2023/04/05 01:41:29;;;;;;;12.07;9.13;;;;;;;5.54;56.76;102328.84;5062083;28;20041;-66
2023/04/05 01:43:54;;;;;;;11.88;8.93;;;;;;;5.51;56.85;102320.09;5069184;28;20036;-66
2023/04/05 01:46:19;;;;;;;15.90;9.80;;;;;;;5.49;56.66;102320.25;5091515;28;20429;-67
2023/04/05 01:48:45;;;;;;;14.35;10.05;;;;;;;5.46;56.73;102320.63;5074093;28;20037;-67
2023/04/05 01:51:11;;;;;;;17.92;10.38;;;;;;;5.47;56.57;102322.34;5073755;28;20024;-67
2023/04/05 01:53:36;;;;;;;16.90;11.20;;;;;;;5.42;56.35;102322.03;5072353;28;20525;-66
2023/04/05 01:56:02;;;;;;;16.00;10.63;;;;;;;5.36;56.51;102315.38;5073049;28;20024;-66
2023/04/05 01:58:27;;;;;;;16.23;10.68;;;;;;;5.34;56.72;102316.59;5073938;28;20032;-67
2023/04/05 02:00:54;;;;;;;12.82;9.68;;;;;;;5.32;56.58;102313.16;5071133;28;20021;-67
2023/04/05 02:03:20;;;;;;;12.50;9.60;;;;;;;5.26;56.87;102309.22;5061965;28;20035;-66
2023/04/05 02:05:45;;;;;;;17.20;9.95;;;;;;;5.27;56.47;102310.97;5072432;28;20032;-66
2023/04/05 02:08:12;;;;;;;19.88;10.77;;;;;;;5.25;56.72;102301.16;5070821;28;20032;-66
2023/04/05 02:10:37;;;;;;;14.43;9.50;;;;;;;5.22;56.71;102305.13;5070887;28;20073;-66
2023/04/05 02:13:02;;;;;;;15.63;10.55;;;;;;;5.24;56.78;102303.06;5061894;28;20492;-66
2023/04/05 02:15:28;;;;;;;13.65;9.93;;;;;;;5.25;56.47;102304.78;5069647;28;20158;-66
2023/04/05 02:17:54;;;;;;;15.48;9.30;;;;;;;5.18;56.52;102306.53;5065147;28;20033;-66
2023/04/05 02:20:19;;;;;;;15.65;10.25;;;;;;;5.15;56.67;102305.03;5075010;28;20039;-66
2023/04/05 02:22:44;;;;;;;15.75;11.00;;;;;;;5.13;56.46;102303.47;5076416;28;20472;-66
2023/04/05 02:25:11;;;;;;;13.95;10.27;;;;;;;5.13;56.75;102309.00;5066922;28;20115;-67
2023/04/05 02:27:36;;;;;;;13.48;10.50;;;;;;;5.10;56.61;102298.34;5062486;28;20110;-66
2023/04/05 02:30:01;;;;;;;17.63;11.02;;;;;;;5.05;56.89;102304.38;5066352;28;20070;-67
2023/04/05 02:32:27;;;;;;;13.00;10.00;;;;;;;5.04;56.88;102294.44;5078423;28;20106;-66
2023/04/05 02:34:52;;;;;;;12.85;9.63;;;;;;;5.03;56.95;102297.34;5083650;28;20135;-67
2023/04/05 02:37:19;;;;;;;14.63;10.25;;;;;;;5.05;56.81;102295.28;5064032;28;20086;-66
2023/04/05 02:39:44;;;;;;;15.57;10.13;;;;;;;5.01;56.87;102292.03;5070114;28;20032;-66
2023/04/05 02:42:09;;;;;;;13.98;10.35;;;;;;;4.99;56.82;102291.38;5077288;28;20039;-67
2023/04/05 02:44:35;;;;;;;14.02;10.20;;;;;;;4.94;56.61;102296.53;5071466;28;20077;-66
2023/04/05 02:47:00;;;;;;;15.60;10.20;;;;;;;4.92;57.08;102285.72;5071814;28;20803;-66
2023/04/05 02:49:25;;;;;;;17.75;10.38;;;;;;;4.91;56.91;102294.13;5072090;28;20478;-66
2023/04/05 02:51:50;;;;;;;17.27;11.20;;;;;;;4.90;57.11;102293.28;5088347;28;20044;-66
2023/04/05 02:54:16;;;;;;;16.25;10.80;;;;;;;4.88;56.97;102286.28;5073336;28;20032;-67
2023/04/05 02:56:41;;;;;;;15.57;11.20;;;;;;;4.85;57.01;102289.38;5072124;28;20070;-66
2023/04/05 02:59:07;;;;;;;15.45;10.77;;;;;;;4.83;56.79;102295.03;5064487;28;20035;-66
2023/04/05 03:01:35;;;;;;;14.07;10.80;;;;;;;4.82;57.09;102285.09;5059935;28;20028;-66
2023/04/05 03:04:00;;;;;;;15.50;10.73;;;;;;;4.81;56.91;102285.28;5065220;28;20452;-66
2023/04/05 03:06:26;;;;;;;16.27;10.73;;;;;;;4.78;56.93;102282.88;5066130;28;20119;-66
2023/04/05 03:08:52;;;;;;;11.80;9.63;;;;;;;4.72;57.04;102280.88;5064379;28;20036;-66
2023/04/05 03:11:18;;;;;;;15.25;9.95;;;;;;;4.71;57.01;102279.13;5081325;28;20024;-66
2023/04/05 03:13:43;;;;;;;15.05;11.55;;;;;;;4.68;56.95;102278.47;5078234;28;20110;-66
2023/04/05 03:16:08;;;;;;;16.17;10.82;;;;;;;4.66;56.55;102275.03;5066946;28;20478;-66
2023/04/05 03:18:34;;;;;;;14.32;10.40;;;;;;;4.63;57.45;102271.75;5068657;28;20029;-66
2023/04/05 03:20:59;;;;;;;12.18;10.63;;;;;;;4.63;57.32;102269.03;5077296;28;20062;-66
2023/04/05 03:23:29;;;;;;;12.57;10.52;;;;;;;4.59;57.01;102262.16;5079090;28;20079;-67
2023/04/05 03:25:58;;;;;;;17.77;11.35;;;;;;;4.58;57.43;102260.47;5063553;28;20024;-66
2023/04/05 03:28:25;;;;;;;13.55;10.93;;;;;;;4.54;57.42;102265.47;5070912;28;20036;-66
2023/04/05 03:30:50;;;;;;;14.63;10.73;;;;;;;4.53;57.22;102269.25;5076340;28;20111;-67
2023/04/05 03:33:17;;;;;;;16.70;11.40;;;;;;;4.52;57.57;102269.41;5075469;28;20032;-66
2023/04/05 03:35:42;;;;;;;15.32;10.98;;;;;;;4.50;57.34;102264.09;5069729;28;20059;-67
2023/04/05 03:38:07;;;;;;;13.98;10.52;;;;;;;4.50;57.28;102263.25;5055188;28;20125;-66
2023/04/05 03:40:33;;;;;;;15.10;10.48;;;;;;;4.47;57.41;102266.34;5073531;28;20017;-66
2023/04/05 03:42:58;;;;;;;19.30;11.40;;;;;;;4.47;57.48;102261.69;5092489;28;20031;-66
2023/04/05 03:45:24;;;;;;;13.95;10.40;;;;;;;4.46;57.76;102261.91;5075250;28;20021;-67
2023/04/05 03:47:49;;;;;;;13.90;10.52;;;;;;;4.43;57.78;102261.19;5074751;28;20031;-67
2023/04/05 03:50:15;;;;;;;14.75;10.93;;;;;;;4.39;57.47;102259.00;5069656;28;20024;-67
2023/04/05 03:52:40;;;;;;;14.55;10.93;;;;;;;4.39;57.71;102257.09;5063594;28;20127;-68
2023/04/05 03:55:06;;;;;;;15.23;11.15;;;;;;;4.37;57.36;102253.69;5051382;28;20024;-67
2023/04/05 03:57:32;;;;;;;15.88;11.25;;;;;;;4.33;57.72;102256.97;5051931;28;20474;-67
2023/04/05 03:59:57;;;;;;;18.27;11.10;;;;;;;4.34;57.77;102258.69;5068319;28;20028;-67
2023/04/05 04:02:23;;;;;;;12.77;10.52;;;;;;;4.35;57.41;102254.88;5071725;28;20028;-67
2023/04/05 04:04:48;;;;;;;15.80;11.77;;;;;;;4.32;57.77;102250.63;5070653;28;20032;-67
2023/04/05 04:07:13;;;;;;;13.50;11.15;;;;;;;4.31;57.48;102240.63;5070333;28;20040;-67
2023/04/05 04:09:39;;;;;;;15.52;11.48;;;;;;;4.28;57.85;102251.13;5072560;28;20036;-67
2023/04/05 04:12:04;;;;;;;15.07;11.25;;;;;;;4.26;57.62;102251.31;5064636;28;20503;-67
2023/04/05 04:14:30;;;;;;;14.75;11.00;;;;;;;4.25;57.62;102246.00;5069456;28;20073;-67
2023/04/05 04:16:55;;;;;;;14.52;11.65;;;;;;;4.24;57.73;102247.03;5071181;28;20480;-67
2023/04/05 04:19:20;;;;;;;20.17;12.20;;;;;;;4.24;57.81;102244.28;5071509;28;20029;-67
2023/04/05 04:21:50;;;;;;;16.90;11.57;;;;;;;4.21;58.00;102241.91;5070613;28;20027;-67
2023/04/05 04:24:18;;;;;;;17.60;11.23;;;;;;;4.20;57.90;102246.50;5069310;28;20024;-67
2023/04/05 04:26:45;;;;;;;14.98;11.27;;;;;;;4.19;57.84;102236.56;5065139;28;21709;-67
2023/04/05 04:29:11;;;;;;;18.10;11.60;;;;;;;4.17;58.02;102249.63;5065199;28;20020;-67
2023/04/05 04:31:38;;;;;;;18.00;12.38;;;;;;;4.15;57.95;102241.56;5069395;28;20032;-67
2023/04/05 04:34:04;;;;;;;18.75;11.13;;;;;;;4.12;58.07;102244.66;5070069;28;20081;-67
2023/04/05 04:36:38;;;;;;;18.17;11.65;;;;;;;4.13;58.18;102240.88;5067915;28;20036;-67
2023/04/05 04:39:04;;;;;;;18.77;11.13;;;;;;;4.10;57.70;102243.13;5076440;28;20039;-67
2023/04/05 04:41:32;;;;;;;17.15;11.20;;;;;;;4.09;57.63;102235.94;5068429;28;20773;-67
2023/04/05 04:44:01;;;;;;;17.48;11.73;;;;;;;4.06;57.73;102237.13;5063514;28;20032;-67
2023/04/05 04:46:29;;;;;;;21.23;11.82;;;;;;;4.05;57.55;102243.66;5060669;28;20434;-67
2023/04/05 04:48:57;;;;;;;16.92;11.75;;;;;;;4.05;58.19;102240.03;5070411;28;20032;-67
2023/04/05 04:51:23;;;;;;;15.63;11.25;;;;;;;4.05;58.05;102237.28;5078132;28;20028;-67
2023/04/05 04:53:48;;;;;;;19.23;13.02;;;;;;;4.04;58.02;102239.19;5070592;28;20383;-67
2023/04/05 04:56:13;;;;;;;19.35;11.73;;;;;;;4.01;57.78;102238.66;5067953;28;20028;-67
2023/04/05 04:58:38;;;;;;;19.05;11.63;;;;;;;3.99;57.77;102240.75;5055483;28;20111;-67
2023/04/05 05:01:08;;;;;;;16.17;11.15;;;;;;;3.94;58.42;102241.28;5078020;28;20033;-67
2023/04/05 05:03:35;;;;;;;19.20;12.57;;;;;;;3.94;58.30;102239.38;5070187;28;20119;-67
2023/04/05 05:06:01;;;;;;;19.17;13.63;;;;;;;3.92;58.65;102241.44;5061425;28;20499;-66
2023/04/05 05:08:26;;;;;;;19.23;14.02;;;;;;;3.92;58.50;102246.94;5074923;28;20391;-67
2023/04/05 05:10:52;;;;;;;18.05;12.65;;;;;;;3.96;58.84;102239.19;5080479;28;20036;-67
2023/04/05 05:13:17;;;;;;;23.95;13.23;;;;;;;3.97;58.30;102238.19;5071216;28;20047;-67
2023/04/05 05:15:43;;;;;;;21.95;13.60;;;;;;;3.98;58.64;102242.66;5069607;28;20036;-67
2023/04/05 05:18:09;;;;;;;18.17;12.63;;;;;;;3.96;58.06;102249.34;5072594;28;21386;-67
2023/04/05 05:20:34;;;;;;;20.02;12.70;;;;;;;3.93;58.44;102239.56;5085849;28;20036;-68
2023/04/05 05:23:00;;;;;;;17.10;12.82;;;;;;;3.90;58.88;102242.66;5076721;28;20029;-67
2023/04/05 05:25:26;;;;;;;18.23;12.10;;;;;;;3.89;58.67;102233.56;5070700;28;20069;-67
2023/04/05 05:27:51;;;;;;;15.98;12.50;;;;;;;3.90;58.62;102232.53;5065097;28;20037;-66
2023/04/05 05:30:17;;;;;;;24.98;13.60;;;;;;;3.87;58.69;102234.78;5077833;28;20434;-66
2023/04/05 05:32:42;;;;;;;17.52;12.23;;;;;;;3.87;58.80;102235.63;5081892;28;20068;-66
2023/04/05 05:35:08;;;;;;;18.55;12.68;;;;;;;3.87;58.85;102232.88;5059004;28;20461;-67
2023/04/05 05:37:34;;;;;;;18.60;12.98;;;;;;;3.89;59.21;102232.69;5063542;28;20130;-66
2023/04/05 05:39:59;;;;;;;19.58;13.23;;;;;;;3.87;58.79;102230.13;5061385;28;20528;-66
2023/04/05 05:42:26;;;;;;;17.27;12.82;;;;;;;3.91;58.84;102225.16;5069733;28;20468;-67
2023/04/05 05:44:51;;;;;;;20.25;13.18;;;;;;;3.90;59.45;102228.94;5053699;28;20037;-66
2023/04/05 05:47:17;;;;;;;22.75;13.75;;;;;;;3.89;59.26;102230.84;5050925;28;20070;-65
2023/04/05 05:49:42;;;;;;;16.45;12.52;;;;;;;3.92;59.43;102233.19;5071730;28;20036;-65
2023/04/05 05:52:07;;;;;;;19.92;13.98;;;;;;;3.98;59.54;102231.66;5067044;28;20021;-66
2023/04/05 05:54:32;;;;;;;18.75;12.88;;;;;;;3.99;59.65;102227.88;5059347;28;20443;-66
2023/04/05 05:56:58;;;;;;;17.75;13.18;;;;;;;4.04;59.19;102230.94;5072336;28;20040;-65
2023/04/05 05:59:23;;;;;;;17.95;13.10;;;;;;;4.07;59.68;102241.56;5070065;28;20028;-65
2023/04/05 06:01:50;;;;;;;17.25;13.40;;;;;;;4.14;59.87;102236.25;5067512;28;20098;-64
2023/04/05 06:04:15;;;;;;;18.17;12.88;;;;;;;4.14;59.72;102237.09;5069236;28;20476;-65
2023/04/05 06:06:42;;;;;;;15.75;13.07;;;;;;;4.21;60.16;102241.91;5064729;28;20028;-65
2023/04/05 06:09:11;;;;;;;17.73;13.68;;;;;;;4.32;59.32;102236.00;5064745;28;20047;-65
2023/04/05 06:11:36;;;;;;;19.52;14.50;;;;;;;4.43;58.51;102236.47;5048915;28;20039;-66
2023/04/05 06:14:01;;;;;;;25.08;15.25;;;;;;;4.57;58.09;102234.00;5045784;28;20811;-66
2023/04/05 06:16:28;;;;;;;20.25;14.80;;;;;;;4.66;58.00;102241.16;5055520;28;20036;-65
2023/04/05 06:18:55;;;;;;;17.23;14.60;;;;;;;4.73;57.84;102244.91;5067064;28;20519;-63
2023/04/05 06:21:20;;;;;;;18.92;14.65;;;;;;;4.85;57.04;102245.34;5068216;28;20095;-65
2023/04/05 06:23:46;;;;;;;18.90;15.10;;;;;;;4.95;56.17;102248.72;5070624;28;20144;-66
2023/04/05 06:26:25;;;;;;;19.73;15.45;;;;;;;5.05;56.42;102251.25;5070081;28;20124;-67
2023/04/05 06:28:53;;;;;;;23.73;16.30;;;;;;;5.12;56.07;102243.97;5052812;28;20498;-65
2023/04/05 06:31:19;;;;;;;20.40;14.80;;;;;;;5.17;55.76;102241.53;5069729;28;20111;-66
2023/04/05 06:33:45;;;;;;;20.25;15.52;;;;;;;5.21;55.67;102239.25;5067587;28;20487;-66
2023/04/05 06:36:10;;;;;;;21.52;15.10;;;;;;;5.28;55.11;102237.50;5072566;28;20035;-66
2023/04/05 06:38:36;;;;;;;20.50;14.57;;;;;;;5.38;54.92;102235.31;5072112;28;20028;-66
2023/04/05 06:41:01;;;;;;;20.45;15.35;;;;;;;5.45;54.85;102244.56;5085968;28;20525;-67
2023/04/05 06:43:27;;;;;;;19.00;14.68;;;;;;;5.53;54.91;102243.63;5070045;28;20035;-65
2023/04/05 06:45:55;;;;;;;20.73;14.65;;;;;;;5.59;54.56;102246.50;5071100;28;20060;-65
2023/04/05 06:48:20;;;;;;;25.77;16.13;;;;;;;5.66;54.42;102241.13;5069538;28;20107;-65
2023/04/05 06:50:55;;;;;;;19.20;15.43;;;;;;;5.71;54.16;102244.16;5073865;28;20147;-65
2023/04/05 06:53:21;;;;;;;20.17;15.45;;;;;;;5.72;54.49;102236.75;5051836;28;20028;-66
2023/04/05 06:55:50;;;;;;;20.30;14.52;;;;;;;5.77;53.88;102243.41;5057651;28;20783;-65
2023/04/05 06:58:15;;;;;;;20.73;15.57;;;;;;;5.82;53.95;102248.38;5069692;28;20118;-65
2023/04/05 07:00:40;;;;;;;19.13;14.63;;;;;;;5.86;54.08;102249.72;5066526;28;20047;-65
2023/04/05 07:03:06;;;;;;;21.20;15.40;;;;;;;5.91;53.36;102252.75;5068404;28;20082;-65
2023/04/05 07:05:31;;;;;;;26.88;14.80;;;;;;;5.97;54.14;102254.75;5059694;28;20050;-65
2023/04/05 07:07:56;;;;;;;22.42;14.57;;;;;;;6.05;53.08;102243.69;5066101;28;20047;-65
2023/04/05 07:10:21;;;;;;;19.33;14.40;;;;;;;6.14;53.22;102242.53;5070077;28;20036;-65
2023/04/05 07:12:47;;;;;;;20.77;14.90;;;;;;;6.20;53.39;102240.91;5074673;28;20656;-65
2023/04/05 07:15:12;;;;;;;16.30;13.32;;;;;;;6.27;52.56;102246.53;5070573;28;20063;-67
2023/04/05 07:17:37;;;;;;;15.43;12.98;;;;;;;6.32;52.65;102247.66;5063836;28;20041;-67
2023/04/05 07:20:05;;;;;;;18.17;13.10;;;;;;;6.39;52.25;102250.50;5067684;28;20070;-66
2023/04/05 07:22:32;;;;;;;19.77;13.52;;;;;;;6.41;52.46;102242.06;5052542;28;20056;-70
2023/04/05 07:24:57;;;;;;;18.02;13.88;;;;;;;6.44;52.70;102248.03;5064183;28;20569;-71
2023/04/05 07:27:22;;;;;;;16.90;13.18;;;;;;;6.53;52.11;102252.41;5070096;28;20071;-71
2023/04/05 07:29:48;;;;;;;16.67;12.70;;;;;;;6.60;52.24;102247.84;5089765;28;20039;-67
2023/04/05 07:32:13;;;;;;;17.08;12.85;;;;;;;6.70;52.13;102241.16;5072290;28;20475;-67
2023/04/05 07:34:38;;;;;;;17.60;13.55;;;;;;;6.77;52.10;102247.59;5070383;28;20044;-66
2023/04/05 07:37:05;;;;;;;17.73;13.32;;;;;;;6.85;51.04;102237.28;5050259;28;20120;-67
2023/04/05 07:39:30;;;;;;;17.02;13.02;;;;;;;6.97;50.92;102240.41;5079054;28;20020;-67
2023/04/05 07:41:55;;;;;;;18.27;13.43;;;;;;;7.08;50.78;102248.19;5080621;28;20368;-67
2023/04/05 07:44:21;;;;;;;16.80;12.98;;;;;;;7.17;50.47;102237.84;5076041;28;20376;-68
2023/04/05 07:46:46;;;;;;;15.00;12.05;;;;;;;7.27;50.59;102241.16;5069284;28;20064;-67
2023/04/05 07:49:11;;;;;;;16.50;12.73;;;;;;;7.38;50.95;102243.38;5086382;28;20039;-68
2023/04/05 07:51:37;;;;;;;16.35;12.43;;;;;;;7.48;50.69;102240.28;5088697;28;20050;-65
2023/04/05 07:54:04;;;;;;;18.92;12.68;;;;;;;7.60;50.39;102246.97;5059560;28;20029;-65
2023/04/05 07:56:30;;;;;;;16.85;12.57;;;;;;;7.71;49.54;102241.97;5068262;28;20040;-65
2023/04/05 07:58:56;;;;;;;16.88;12.82;;;;;;;7.82;49.87;102238.63;5068996;28;20035;-65
2023/04/05 08:01:26;;;;;;;15.75;12.73;;;;;;;7.92;49.28;102239.13;5070572;28;20033;-63
2023/04/05 08:03:51;;;;;;;17.17;12.18;;;;;;;8.01;48.70;102245.34;5068173;28;20115;-65
2023/04/05 08:06:16;;;;;;;18.45;12.15;;;;;;;8.10;49.04;102239.50;5068897;28;20054;-64
2023/04/05 08:08:42;;;;;;;14.80;10.95;;;;;;;8.24;48.46;102239.56;5067911;28;20036;-64
2023/04/05 08:11:08;;;;;;;15.25;11.48;;;;;;;8.33;48.08;102236.44;5062980;28;20047;-64
2023/04/05 08:13:33;;;;;;;15.05;10.18;;;;;;;8.47;47.49;102231.00;5069013;28;20532;-64
2023/04/05 08:16:00;;;;;;;14.30;9.63;;;;;;;8.62;46.69;102230.84;5077138;28;20131;-64
2023/04/05 08:18:26;;;;;;;12.48;9.73;;;;;;;8.74;45.75;102234.72;5087323;28;20418;-64
2023/04/05 08:20:55;;;;;;;11.63;9.52;;;;;;;8.84;43.68;102237.94;5084509;28;20032;-64
2023/04/05 08:23:21;;;;;;;12.88;10.70;;;;;;;8.93;44.29;102239.47;5058539;28;20029;-64
2023/04/05 08:25:46;;;;;;;13.55;8.50;;;;;;;9.02;43.33;102238.22;5070849;28;20050;-65
2023/04/05 08:28:12;;;;;;;14.07;9.90;;;;;;;9.10;43.37;102240.78;5072598;28;20032;-64
2023/04/05 08:30:38;;;;;;;13.38;8.95;;;;;;;9.23;43.21;102234.41;5077588;28;20047;-65
2023/04/05 08:33:03;;;;;;;16.65;9.70;;;;;;;9.32;42.23;102232.31;5075485;28;20028;-64
2023/04/05 08:35:29;;;;;;;13.20;10.00;;;;;;;9.39;42.13;102238.69;5090344;28;20039;-64
2023/04/05 08:37:55;;;;;;;12.30;9.77;;;;;;;9.51;43.08;102237.03;5077036;28;20032;-64
2023/04/05 08:40:21;;;;;;;12.77;10.27;;;;;;;9.63;44.89;102230.84;5084758;28;20402;-64
2023/04/05 08:42:55;;;;;;;12.10;9.82;;;;;;;9.71;44.15;102225.09;5074599;28;20036;-64
2023/04/05 08:45:22;;;;;;;13.60;9.40;;;;;;;9.81;43.08;102225.50;5083614;28;20055;-64
2023/04/05 08:47:50;;;;;;;13.57;9.73;;;;;;;9.88;43.53;102231.06;5088358;28;20417;-64
2023/04/05 08:50:15;;;;;;;13.05;10.20;;;;;;;9.95;42.42;102227.19;5090073;28;20023;-64
2023/04/05 08:52:48;;;;;;;15.98;10.02;;;;;;;9.94;41.88;102231.06;5087207;28;20545;-64
2023/04/05 08:55:14;;;;;;;15.52;10.18;;;;;;;10.02;41.95;102230.81;5083172;28;20039;-64
2023/04/05 08:57:42;;;;;;;12.48;9.55;;;;;;;10.13;41.66;102222.91;5090084;28;20027;-64
2023/04/05 09:00:08;;;;;;;14.27;10.00;;;;;;;10.19;41.28;102227.59;5067945;28;20033;-64
2023/04/05 09:02:35;;;;;;;14.48;9.90;;;;;;;10.25;40.83;102222.03;5068073;28;20039;-64
2023/04/05 09:05:01;;;;;;;14.50;10.30;;;;;;;10.35;41.50;102218.81;5074194;28;20035;-64
2023/04/05 09:07:29;;;;;;;14.48;10.50;;;;;;;10.37;41.55;102222.22;5090026;28;20035;-64
2023/04/05 09:09:58;;;;;;;14.85;10.25;;;;;;;10.46;41.23;102220.06;5088474;28;20028;-64
2023/04/05 09:12:25;;;;;;;19.00;10.48;;;;;;;10.50;40.97;102219.41;5086622;28;20036;-64
2023/04/05 09:14:51;;;;;;;13.82;10.82;;;;;;;10.54;41.55;102215.13;5086823;28;20024;-64
2023/04/05 09:17:18;;;;;;;17.60;11.18;;;;;;;10.64;42.30;102208.22;5069408;28;20033;-64
2023/04/05 09:19:43;;;;;;;14.60;11.05;;;;;;;10.68;41.03;102215.06;5068181;28;20464;-65
2023/04/05 09:22:10;;;;;;;13.85;10.60;;;;;;;10.73;40.70;102209.72;5081937;28;20036;-64
2023/04/05 09:24:43;;;;;;;18.27;11.63;;;;;;;10.71;41.07;102204.34;5084956;28;20021;-64
2023/04/05 09:27:13;;;;;;;15.20;11.18;;;;;;;10.75;40.37;102208.41;5069757;28;20035;-64
2023/04/05 09:29:41;;;;;;;11.98;9.65;;;;;;;10.83;38.69;102212.84;5068544;28;20028;-64
2023/04/05 09:32:08;;;;;;;14.68;9.68;;;;;;;10.89;39.04;102198.09;5058216;28;20055;-64
2023/04/05 09:34:36;;;;;;;12.65;9.20;;;;;;;10.94;38.58;102200.19;5085370;28;20028;-64
2023/04/05 09:37:02;;;;;;;15.25;10.95;;;;;;;11.05;39.79;102199.47;5073314;28;20025;-64
2023/04/05 09:39:31;;;;;;;12.52;9.57;;;;;;;11.09;37.95;102208.22;5072006;28;20024;-64
2023/04/05 09:42:06;;;;;;;12.93;8.27;;;;;;;11.06;36.95;102206.72;5087781;28;20032;-64
2023/04/05 09:44:51;;;;;;;12.05;8.65;;;;;;;11.07;36.89;102208.44;5088466;28;20441;-64
2023/04/05 09:47:17;;;;;;;13.90;9.48;;;;;;;11.04;36.68;102198.63;5086733;28;20035;-64
2023/04/05 09:49:43;;;;;;;11.63;9.05;;;;;;;11.10;36.21;102201.59;5084344;28;20517;-64
2023/04/05 09:52:19;;;;;;;15.77;9.63;;;;;;;11.14;36.99;102197.28;5076865;28;20062;-64
2023/04/05 09:54:44;;;;;;;13.73;9.07;;;;;;;11.14;36.24;102197.28;5088652;28;20085;-64
2023/04/05 09:57:10;;;;;;;12.75;9.02;;;;;;;11.16;37.46;102200.66;5072609;28;20735;-65
2023/04/05 09:59:35;;;;;;;10.20;8.77;;;;;;;11.21;37.03;102195.31;5072603;28;20033;-65
2023/04/05 10:02:02;;;;;;;15.07;9.65;;;;;;;11.24;36.88;102187.38;5084222;28;20024;-64
2023/04/05 10:04:38;;;;;;;12.93;9.57;;;;;;;11.27;37.00;102192.47;5091889;28;20032;-64
2023/04/05 10:07:03;;;;;;;12.45;9.93;;;;;;;11.28;34.64;102190.56;5075381;28;20033;-65
2023/04/05 10:09:29;;;;;;;11.10;9.48;;;;;;;11.25;34.96;102191.00;5072496;28;20593;-64
2023/04/05 10:11:56;;;;;;;12.70;9.63;;;;;;;11.22;35.62;102180.34;5080095;28;20036;-63
2023/04/05 10:14:21;;;;;;;13.18;9.38;;;;;;;11.27;35.44;102184.13;5090380;28;20028;-64
2023/04/05 10:17:18;;;;;;;11.60;9.05;;;;;;;11.31;36.15;102187.31;5084416;28;20042;-65
2023/04/05 10:20:09;;;;;;;9.68;7.80;;;;;;;11.39;35.60;102184.25;5056760;28;20037;-64
2023/04/05 10:22:40;;;;;;;10.75;8.60;;;;;;;11.41;34.66;102164.59;5061161;28;20025;-65
2023/04/05 10:25:35;;;;;;;12.52;9.80;;;;;;;11.46;35.96;102170.31;5055300;28;20484;-64
2023/04/05 10:28:09;;;;;;;15.27;9.90;;;;;;;11.48;35.13;102169.00;5059300;28;20387;-64
2023/04/05 10:30:39;;;;;;;12.02;9.27;;;;;;;11.57;34.63;102163.16;5052661;28;20031;-63
2023/04/05 10:33:34;;;;;;;15.57;9.57;;;;;;;11.64;36.22;102169.50;5053248;28;20028;-65
2023/04/05 10:36:11;;;;;;;12.90;9.85;;;;;;;11.64;34.40;102169.50;5070099;28;20032;-65
2023/04/05 10:39:03;;;;;;;16.30;10.75;;;;;;;11.64;34.93;102163.94;5080326;28;20025;-64
2023/04/05 10:41:33;;;;;;;14.38;10.27;;;;;;;11.66;33.57;102170.13;5068997;28;20044;-62
2023/04/05 10:43:59;;;;;;;12.70;9.55;;;;;;;11.64;33.27;102166.72;5053038;28;20025;-63
2023/04/05 10:46:25;;;;;;;12.63;9.80;;;;;;;11.69;33.17;102164.09;5072233;28;20028;-64
2023/04/05 10:49:07;;;;;;;13.32;9.80;;;;;;;11.66;32.31;102161.78;5059092;28;20037;-65
2023/04/05 10:51:34;;;;;;;12.50;9.32;;;;;;;11.69;32.69;102153.84;5068951;28;20162;-64
2023/04/05 10:54:00;;;;;;;13.85;9.68;;;;;;;11.75;33.61;102161.28;5070692;28;20108;-63
2023/04/05 10:56:29;;;;;;;10.65;8.18;;;;;;;11.80;32.52;102155.00;5069406;28;20119;-65
2023/04/05 10:58:55;;;;;;;14.75;10.57;;;;;;;11.80;33.66;102143.88;5065112;28;20039;-65
2023/04/05 11:01:21;;;;;;;12.68;9.63;;;;;;;11.81;32.56;102145.59;5066195;28;20052;-64
2023/04/05 11:03:48;;;;;;;12.10;9.70;;;;;;;11.80;32.37;102139.16;5069380;28;20020;-66
2023/04/05 11:06:22;;;;;;;12.70;9.55;;;;;;;11.80;32.43;102138.31;5059097;28;20025;-65
2023/04/05 11:08:50;;;;;;;14.27;9.35;;;;;;;11.74;32.23;102131.72;5050675;28;20109;-62
2023/04/05 11:11:17;;;;;;;7.28;6.03;;;;;;;12.06;40.69;102128.00;5053286;28;20499;-64
2023/04/05 11:13:57;;;;;;;11.57;9.20;;;;;;;11.99;33.44;102122.53;5069824;28;20089;-64
2023/04/05 11:16:37;;;;;;;14.73;9.55;;;;;;;12.04;32.54;102125.47;5063781;28;20423;-64
2023/04/05 11:19:02;;;;;;;10.35;8.90;;;;;;;12.05;32.84;102127.16;5064156;28;20051;-65
2023/04/05 11:21:28;;;;;;;11.55;9.45;;;;;;;12.02;32.91;102127.59;5063420;28;20447;-64